sensor_id;sensor_type;location;lat;lon;timestamp;P1;durP1;ratioP1;P2;durP2;ratioP2
21166;SDS011;10741;52.272;9.580;2023-02-28T00:01:23;3.87;;;2.20;;
21166;SDS011;10741;52.272;9.580;2023-02-28T00:03:50;2.57;;;1.90;;
21166;SDS011;10741;52.272;9.580;2023-02-28T00:06:16;4.63;;;2.17;;
21166;SDS011;10741;52.272;9.580;2023-02-28T00:08:42;3.60;;;2.07;;
21166;SDS011;10741;52.272;9.580;2023-02-28T00:11:09;3.20;;;2.07;;
21166;SDS011;10741;52.272;9.580;2023-02-28T00:13:38;3.73;;;1.83;;
21166;SDS011;10741;52.272;9.580;2023-02-28T00:16:10;2.07;;;1.70;;
21166;SDS011;10741;52.272;9.580;2023-02-28T00:18:38;3.23;;;1.90;;
21166;SDS011;10741;52.272;9.580;2023-02-28T00:21:04;3.73;;;2.10;;
21166;SDS011;10741;52.272;9.580;2023-02-28T00:23:30;2.57;;;1.80;;
21166;SDS011;10741;52.272;9.580;2023-02-28T00:25:56;2.37;;;1.90;;
21166;SDS011;10741;52.272;9.580;2023-02-28T00:28:22;3.80;;;2.13;;
21166;SDS011;10741;52.272;9.580;2023-02-28T00:30:48;3.13;;;1.77;;
21166;SDS011;10741;52.272;9.580;2023-02-28T00:33:14;2.67;;;1.47;;
21166;SDS011;10741;52.272;9.580;2023-02-28T00:35:40;1.60;;;1.30;;
21166;SDS011;10741;52.272;9.580;2023-02-28T00:38:06;2.13;;;1.60;;
21166;SDS011;10741;52.272;9.580;2023-02-28T00:40:32;3.47;;;2.27;;
21166;SDS011;10741;52.272;9.580;2023-02-28T00:42:58;3.43;;;2.20;;
21166;SDS011;10741;52.272;9.580;2023-02-28T00:45:24;7.73;;;2.90;;
21166;SDS011;10741;52.272;9.580;2023-02-28T00:47:49;6.20;;;3.43;;
21166;SDS011;10741;52.272;9.580;2023-02-28T00:50:19;6.90;;;3.60;;
21166;SDS011;10741;52.272;9.580;2023-02-28T00:52:45;7.53;;;4.00;;
21166;SDS011;10741;52.272;9.580;2023-02-28T00:55:11;6.00;;;3.50;;
21166;SDS011;10741;52.272;9.580;2023-02-28T00:57:37;7.50;;;3.73;;
21166;SDS011;10741;52.272;9.580;2023-02-28T01:00:03;9.10;;;4.33;;
21166;SDS011;10741;52.272;9.580;2023-02-28T01:02:29;6.57;;;3.77;;
21166;SDS011;10741;52.272;9.580;2023-02-28T01:04:55;9.20;;;4.00;;
21166;SDS011;10741;52.272;9.580;2023-02-28T01:07:22;5.03;;;3.07;;
21166;SDS011;10741;52.272;9.580;2023-02-28T01:09:48;5.03;;;2.87;;
21166;SDS011;10741;52.272;9.580;2023-02-28T01:12:14;3.70;;;2.40;;
21166;SDS011;10741;52.272;9.580;2023-02-28T01:14:40;4.37;;;2.47;;
21166;SDS011;10741;52.272;9.580;2023-02-28T01:17:06;3.40;;;2.23;;
21166;SDS011;10741;52.272;9.580;2023-02-28T01:19:32;5.20;;;2.40;;
21166;SDS011;10741;52.272;9.580;2023-02-28T01:22:00;4.10;;;2.50;;
21166;SDS011;10741;52.272;9.580;2023-02-28T01:24:30;4.53;;;2.40;;
21166;SDS011;10741;52.272;9.580;2023-02-28T01:26:55;5.10;;;2.50;;
21166;SDS011;10741;52.272;9.580;2023-02-28T01:29:21;2.53;;;2.13;;
21166;SDS011;10741;52.272;9.580;2023-02-28T01:31:47;3.47;;;1.97;;
21166;SDS011;10741;52.272;9.580;2023-02-28T01:34:13;2.37;;;1.80;;
21166;SDS011;10741;52.272;9.580;2023-02-28T01:36:39;1.63;;;1.50;;
21166;SDS011;10741;52.272;9.580;2023-02-28T01:39:04;2.13;;;1.40;;
21166;SDS011;10741;52.272;9.580;2023-02-28T01:41:31;2.63;;;1.33;;
21166;SDS011;10741;52.272;9.580;2023-02-28T01:44:00;2.00;;;1.20;;
21166;SDS011;10741;52.272;9.580;2023-02-28T01:46:28;1.43;;;1.27;;
21166;SDS011;10741;52.272;9.580;2023-02-28T01:49:14;1.20;;;1.03;;
21166;SDS011;10741;52.272;9.580;2023-02-28T01:51:46;2.90;;;1.40;;
21166;SDS011;10741;52.272;9.580;2023-02-28T01:54:23;1.73;;;1.17;;
21166;SDS011;10741;52.272;9.580;2023-02-28T01:56:57;1.67;;;1.10;;
21166;SDS011;10741;52.272;9.580;2023-02-28T01:59:27;1.40;;;1.13;;
21166;SDS011;10741;52.272;9.580;2023-02-28T02:02:15;1.53;;;1.20;;
21166;SDS011;10741;52.272;9.580;2023-02-28T02:04:49;1.07;;;0.97;;
21166;SDS011;10741;52.272;9.580;2023-02-28T02:07:29;2.80;;;1.00;;
21166;SDS011;10741;52.272;9.580;2023-02-28T02:10:14;1.57;;;1.27;;
21166;SDS011;10741;52.272;9.580;2023-02-28T02:47:06;2.47;;;0.90;;
21166;SDS011;10741;52.272;9.580;2023-02-28T02:49:39;1.40;;;1.00;;
21166;SDS011;10741;52.272;9.580;2023-02-28T02:52:14;1.30;;;0.97;;
21166;SDS011;10741;52.272;9.580;2023-02-28T02:54:44;2.40;;;1.00;;
21166;SDS011;10741;52.272;9.580;2023-02-28T02:57:21;1.30;;;0.93;;
21166;SDS011;10741;52.272;9.580;2023-02-28T02:59:52;1.00;;;0.93;;
21166;SDS011;10741;52.272;9.580;2023-02-28T03:02:20;1.57;;;1.00;;
21166;SDS011;10741;52.272;9.580;2023-02-28T03:04:53;2.70;;;1.00;;
21166;SDS011;10741;52.272;9.580;2023-02-28T03:07:25;1.07;;;0.97;;
21166;SDS011;10741;52.272;9.580;2023-02-28T03:09:53;1.27;;;0.80;;
21166;SDS011;10741;52.272;9.580;2023-02-28T03:12:20;1.33;;;1.10;;
21166;SDS011;10741;52.272;9.580;2023-02-28T03:20:07;1.43;;;0.90;;
21166;SDS011;10741;52.272;9.580;2023-02-28T03:25:22;1.93;;;0.90;;
21166;SDS011;10741;52.272;9.580;2023-02-28T03:33:36;1.20;;;0.90;;
21166;SDS011;10741;52.272;9.580;2023-02-28T03:36:10;1.27;;;1.10;;
21166;SDS011;10741;52.272;9.580;2023-02-28T03:38:45;0.80;;;0.80;;
21166;SDS011;10741;52.272;9.580;2023-02-28T03:41:31;1.20;;;1.00;;
21166;SDS011;10741;52.272;9.580;2023-02-28T03:44:05;2.10;;;1.10;;
21166;SDS011;10741;52.272;9.580;2023-02-28T03:46:47;2.40;;;0.83;;
21166;SDS011;10741;52.272;9.580;2023-02-28T03:49:18;1.67;;;1.00;;
21166;SDS011;10741;52.272;9.580;2023-02-28T03:51:47;1.27;;;1.10;;
21166;SDS011;10741;52.272;9.580;2023-02-28T03:54:16;1.20;;;0.90;;
21166;SDS011;10741;52.272;9.580;2023-02-28T03:56:51;0.90;;;0.90;;
21166;SDS011;10741;52.272;9.580;2023-02-28T03:59:32;1.60;;;0.90;;
21166;SDS011;10741;52.272;9.580;2023-02-28T04:02:02;1.27;;;1.00;;
21166;SDS011;10741;52.272;9.580;2023-02-28T04:04:28;1.30;;;0.90;;
21166;SDS011;10741;52.272;9.580;2023-02-28T04:07:00;1.27;;;1.10;;
21166;SDS011;10741;52.272;9.580;2023-02-28T04:09:27;0.93;;;0.80;;
21166;SDS011;10741;52.272;9.580;2023-02-28T04:11:53;1.57;;;1.20;;
21166;SDS011;10741;52.272;9.580;2023-02-28T04:14:22;1.67;;;1.00;;
21166;SDS011;10741;52.272;9.580;2023-02-28T04:16:48;1.47;;;1.00;;
21166;SDS011;10741;52.272;9.580;2023-02-28T04:19:15;1.43;;;1.10;;
21166;SDS011;10741;52.272;9.580;2023-02-28T04:21:43;1.63;;;0.90;;
21166;SDS011;10741;52.272;9.580;2023-02-28T04:24:12;1.10;;;1.00;;
21166;SDS011;10741;52.272;9.580;2023-02-28T04:26:39;1.57;;;0.87;;
21166;SDS011;10741;52.272;9.580;2023-02-28T04:29:08;2.20;;;1.50;;
21166;SDS011;10741;52.272;9.580;2023-02-28T04:31:35;1.80;;;1.10;;
21166;SDS011;10741;52.272;9.580;2023-02-28T04:34:01;1.97;;;1.27;;
21166;SDS011;10741;52.272;9.580;2023-02-28T04:36:27;2.27;;;1.60;;
21166;SDS011;10741;52.272;9.580;2023-02-28T04:38:53;2.47;;;1.80;;
21166;SDS011;10741;52.272;9.580;2023-02-28T04:41:19;3.10;;;2.20;;
21166;SDS011;10741;52.272;9.580;2023-02-28T04:43:45;2.60;;;1.77;;
21166;SDS011;10741;52.272;9.580;2023-02-28T04:46:11;2.73;;;1.80;;
21166;SDS011;10741;52.272;9.580;2023-02-28T04:48:37;2.80;;;1.40;;
21166;SDS011;10741;52.272;9.580;2023-02-28T04:51:05;4.63;;;1.93;;
21166;SDS011;10741;52.272;9.580;2023-02-28T04:53:35;2.17;;;1.87;;
21166;SDS011;10741;52.272;9.580;2023-02-28T04:56:03;2.30;;;1.77;;
21166;SDS011;10741;52.272;9.580;2023-02-28T04:58:29;2.13;;;1.50;;
21166;SDS011;10741;52.272;9.580;2023-02-28T05:01:01;3.13;;;1.40;;
21166;SDS011;10741;52.272;9.580;2023-02-28T05:03:28;2.87;;;1.40;;
21166;SDS011;10741;52.272;9.580;2023-02-28T05:05:54;2.87;;;1.40;;
21166;SDS011;10741;52.272;9.580;2023-02-28T05:08:20;2.37;;;1.60;;
21166;SDS011;10741;52.272;9.580;2023-02-28T05:10:46;2.73;;;1.23;;
21166;SDS011;10741;52.272;9.580;2023-02-28T05:13:12;2.37;;;1.40;;
21166;SDS011;10741;52.272;9.580;2023-02-28T05:15:38;2.00;;;1.30;;
21166;SDS011;10741;52.272;9.580;2023-02-28T05:18:03;1.87;;;1.30;;
21166;SDS011;10741;52.272;9.580;2023-02-28T05:20:29;2.80;;;1.40;;
21166;SDS011;10741;52.272;9.580;2023-02-28T05:22:55;1.70;;;1.30;;
21166;SDS011;10741;52.272;9.580;2023-02-28T05:25:23;3.00;;;1.40;;
21166;SDS011;10741;52.272;9.580;2023-02-28T05:27:49;1.57;;;1.30;;
21166;SDS011;10741;52.272;9.580;2023-02-28T05:30:14;2.17;;;1.90;;
21166;SDS011;10741;52.272;9.580;2023-02-28T05:32:41;2.07;;;1.70;;
21166;SDS011;10741;52.272;9.580;2023-02-28T05:35:10;3.40;;;1.97;;
21166;SDS011;10741;52.272;9.580;2023-02-28T05:37:36;1.63;;;1.37;;
21166;SDS011;10741;52.272;9.580;2023-02-28T05:40:03;2.13;;;1.67;;
21166;SDS011;10741;52.272;9.580;2023-02-28T05:42:36;3.90;;;1.70;;
21166;SDS011;10741;52.272;9.580;2023-02-28T05:45:03;2.30;;;1.27;;
21166;SDS011;10741;52.272;9.580;2023-02-28T05:47:29;2.23;;;1.20;;
21166;SDS011;10741;52.272;9.580;2023-02-28T05:49:55;4.43;;;1.43;;
21166;SDS011;10741;52.272;9.580;2023-02-28T05:52:21;1.77;;;1.50;;
21166;SDS011;10741;52.272;9.580;2023-02-28T05:54:47;2.17;;;1.37;;
21166;SDS011;10741;52.272;9.580;2023-02-28T05:57:12;1.43;;;1.17;;
21166;SDS011;10741;52.272;9.580;2023-02-28T05:59:38;1.20;;;1.10;;
21166;SDS011;10741;52.272;9.580;2023-02-28T06:02:05;3.77;;;1.30;;
21166;SDS011;10741;52.272;9.580;2023-02-28T06:04:35;3.70;;;1.80;;
21166;SDS011;10741;52.272;9.580;2023-02-28T06:07:01;3.87;;;2.03;;
21166;SDS011;10741;52.272;9.580;2023-02-28T06:09:28;3.13;;;2.00;;
21166;SDS011;10741;52.272;9.580;2023-02-28T06:11:54;3.83;;;2.13;;
21166;SDS011;10741;52.272;9.580;2023-02-28T06:14:22;2.90;;;2.07;;
21166;SDS011;10741;52.272;9.580;2023-02-28T06:16:47;3.60;;;1.97;;
21166;SDS011;10741;52.272;9.580;2023-02-28T06:19:13;3.60;;;2.30;;
21166;SDS011;10741;52.272;9.580;2023-02-28T06:21:40;4.60;;;2.40;;
21166;SDS011;10741;52.272;9.580;2023-02-28T06:24:06;3.03;;;2.07;;
21166;SDS011;10741;52.272;9.580;2023-02-28T06:26:32;3.93;;;2.40;;
21166;SDS011;10741;52.272;9.580;2023-02-28T06:28:58;4.27;;;2.07;;
21166;SDS011;10741;52.272;9.580;2023-02-28T06:31:25;4.03;;;2.20;;
21166;SDS011;10741;52.272;9.580;2023-02-28T06:33:51;3.93;;;2.53;;
21166;SDS011;10741;52.272;9.580;2023-02-28T06:36:17;3.47;;;2.40;;
21166;SDS011;10741;52.272;9.580;2023-02-28T06:38:44;3.83;;;2.40;;
21166;SDS011;10741;52.272;9.580;2023-02-28T06:41:10;3.57;;;2.57;;
21166;SDS011;10741;52.272;9.580;2023-02-28T06:43:37;4.23;;;2.20;;
21166;SDS011;10741;52.272;9.580;2023-02-28T06:46:06;4.43;;;2.63;;
21166;SDS011;10741;52.272;9.580;2023-02-28T06:48:33;3.97;;;2.60;;
21166;SDS011;10741;52.272;9.580;2023-02-28T06:51:07;6.50;;;2.73;;
21166;SDS011;10741;52.272;9.580;2023-02-28T06:53:34;5.90;;;3.10;;
21166;SDS011;10741;52.272;9.580;2023-02-28T06:56:06;4.90;;;3.03;;
21166;SDS011;10741;52.272;9.580;2023-02-28T06:58:33;5.03;;;3.33;;
21166;SDS011;10741;52.272;9.580;2023-02-28T07:01:00;6.77;;;3.63;;
21166;SDS011;10741;52.272;9.580;2023-02-28T07:03:26;6.40;;;3.57;;
21166;SDS011;10741;52.272;9.580;2023-02-28T07:05:52;5.03;;;3.63;;
21166;SDS011;10741;52.272;9.580;2023-02-28T07:08:18;6.33;;;4.23;;
21166;SDS011;10741;52.272;9.580;2023-02-28T07:10:44;6.90;;;3.77;;
21166;SDS011;10741;52.272;9.580;2023-02-28T07:13:10;5.97;;;3.40;;
21166;SDS011;10741;52.272;9.580;2023-02-28T07:15:37;5.10;;;2.93;;
21166;SDS011;10741;52.272;9.580;2023-02-28T07:18:03;3.00;;;2.43;;
21166;SDS011;10741;52.272;9.580;2023-02-28T07:20:29;4.17;;;2.90;;
21166;SDS011;10741;52.272;9.580;2023-02-28T07:22:55;5.50;;;3.00;;
21166;SDS011;10741;52.272;9.580;2023-02-28T07:25:23;3.13;;;2.33;;
21166;SDS011;10741;52.272;9.580;2023-02-28T07:27:51;3.77;;;2.37;;
21166;SDS011;10741;52.272;9.580;2023-02-28T07:30:18;3.97;;;2.73;;
21166;SDS011;10741;52.272;9.580;2023-02-28T07:32:44;4.13;;;2.50;;
21166;SDS011;10741;52.272;9.580;2023-02-28T07:35:10;3.83;;;1.83;;
21166;SDS011;10741;52.272;9.580;2023-02-28T07:37:36;4.77;;;2.17;;
21166;SDS011;10741;52.272;9.580;2023-02-28T07:40:06;2.60;;;1.80;;
21166;SDS011;10741;52.272;9.580;2023-02-28T07:42:35;4.13;;;2.20;;
21166;SDS011;10741;52.272;9.580;2023-02-28T07:45:01;3.57;;;2.20;;
21166;SDS011;10741;52.272;9.580;2023-02-28T07:47:28;5.53;;;2.67;;
21166;SDS011;10741;52.272;9.580;2023-02-28T07:49:55;6.47;;;3.13;;
21166;SDS011;10741;52.272;9.580;2023-02-28T07:52:21;6.27;;;2.70;;
21166;SDS011;10741;52.272;9.580;2023-02-28T07:54:48;4.13;;;2.80;;
21166;SDS011;10741;52.272;9.580;2023-02-28T07:57:16;4.63;;;2.70;;
21166;SDS011;10741;52.272;9.580;2023-02-28T07:59:43;5.93;;;3.83;;
21166;SDS011;10741;52.272;9.580;2023-02-28T08:02:12;5.37;;;3.23;;
21166;SDS011;10741;52.272;9.580;2023-02-28T08:04:39;4.83;;;3.07;;
21166;SDS011;10741;52.272;9.580;2023-02-28T08:07:05;6.77;;;2.97;;
21166;SDS011;10741;52.272;9.580;2023-02-28T08:09:31;4.47;;;3.20;;
21166;SDS011;10741;52.272;9.580;2023-02-28T08:11:57;3.83;;;3.30;;
21166;SDS011;10741;52.272;9.580;2023-02-28T08:14:23;4.73;;;3.90;;
21166;SDS011;10741;52.272;9.580;2023-02-28T08:16:49;4.57;;;3.33;;
21166;SDS011;10741;52.272;9.580;2023-02-28T08:19:14;4.50;;;3.30;;
21166;SDS011;10741;52.272;9.580;2023-02-28T08:21:40;5.13;;;3.67;;
21166;SDS011;10741;52.272;9.580;2023-02-28T08:24:06;6.53;;;3.50;;
21166;SDS011;10741;52.272;9.580;2023-02-28T08:26:32;4.83;;;3.50;;
21166;SDS011;10741;52.272;9.580;2023-02-28T08:28:58;5.30;;;3.73;;
21166;SDS011;10741;52.272;9.580;2023-02-28T08:31:24;6.07;;;3.50;;
21166;SDS011;10741;52.272;9.580;2023-02-28T08:33:50;4.00;;;3.30;;
21166;SDS011;10741;52.272;9.580;2023-02-28T08:36:17;4.43;;;3.20;;
21166;SDS011;10741;52.272;9.580;2023-02-28T08:38:44;5.03;;;3.63;;
21166;SDS011;10741;52.272;9.580;2023-02-28T08:41:11;5.63;;;3.57;;
21166;SDS011;10741;52.272;9.580;2023-02-28T08:43:38;4.80;;;3.70;;
21166;SDS011;10741;52.272;9.580;2023-02-28T08:46:05;6.80;;;4.27;;
21166;SDS011;10741;52.272;9.580;2023-02-28T08:48:32;6.67;;;4.33;;
21166;SDS011;10741;52.272;9.580;2023-02-28T08:51:00;6.23;;;4.77;;
21166;SDS011;10741;52.272;9.580;2023-02-28T08:53:28;6.40;;;4.50;;
21166;SDS011;10741;52.272;9.580;2023-02-28T08:55:58;7.67;;;4.43;;
21166;SDS011;10741;52.272;9.580;2023-02-28T08:58:25;7.07;;;4.50;;
21166;SDS011;10741;52.272;9.580;2023-02-28T09:00:51;6.10;;;4.30;;
21166;SDS011;10741;52.272;9.580;2023-02-28T09:03:18;7.37;;;4.40;;
21166;SDS011;10741;52.272;9.580;2023-02-28T09:05:53;7.47;;;4.70;;
21166;SDS011;10741;52.272;9.580;2023-02-28T09:08:24;6.00;;;4.73;;
21166;SDS011;10741;52.272;9.580;2023-02-28T09:10:51;6.97;;;4.70;;
21166;SDS011;10741;52.272;9.580;2023-02-28T09:13:18;5.93;;;3.97;;
21166;SDS011;10741;52.272;9.580;2023-02-28T09:15:44;4.70;;;3.97;;
21166;SDS011;10741;52.272;9.580;2023-02-28T09:18:10;5.40;;;4.90;;
21166;SDS011;10741;52.272;9.580;2023-02-28T09:20:39;4.43;;;4.03;;
21166;SDS011;10741;52.272;9.580;2023-02-28T09:23:06;4.87;;;4.07;;
21166;SDS011;10741;52.272;9.580;2023-02-28T09:25:33;5.17;;;4.67;;
21166;SDS011;10741;52.272;9.580;2023-02-28T09:27:59;4.57;;;4.00;;
21166;SDS011;10741;52.272;9.580;2023-02-28T09:30:25;5.17;;;4.17;;
21166;SDS011;10741;52.272;9.580;2023-02-28T09:32:52;5.77;;;3.97;;
21166;SDS011;10741;52.272;9.580;2023-02-28T09:35:21;4.70;;;4.20;;
21166;SDS011;10741;52.272;9.580;2023-02-28T09:37:51;6.00;;;3.97;;
21166;SDS011;10741;52.272;9.580;2023-02-28T09:40:17;4.13;;;3.13;;
21166;SDS011;10741;52.272;9.580;2023-02-28T09:42:48;4.13;;;3.50;;
21166;SDS011;10741;52.272;9.580;2023-02-28T09:45:20;3.90;;;3.23;;
21166;SDS011;10741;52.272;9.580;2023-02-28T09:47:50;4.87;;;3.60;;
21166;SDS011;10741;52.272;9.580;2023-02-28T09:50:30;4.00;;;3.20;;
21166;SDS011;10741;52.272;9.580;2023-02-28T09:53:06;5.17;;;3.27;;
21166;SDS011;10741;52.272;9.580;2023-02-28T09:55:59;5.07;;;3.37;;
21166;SDS011;10741;52.272;9.580;2023-02-28T09:58:44;3.47;;;2.80;;
21166;SDS011;10741;52.272;9.580;2023-02-28T10:06:32;4.37;;;3.33;;
21166;SDS011;10741;52.272;9.580;2023-02-28T10:09:07;3.60;;;2.50;;
21166;SDS011;10741;52.272;9.580;2023-02-28T10:11:41;4.57;;;2.53;;
21166;SDS011;10741;52.272;9.580;2023-02-28T10:16:53;3.60;;;2.53;;
21166;SDS011;10741;52.272;9.580;2023-02-28T10:22:38;3.43;;;2.63;;
21166;SDS011;10741;52.272;9.580;2023-02-28T10:25:20;3.80;;;2.40;;
21166;SDS011;10741;52.272;9.580;2023-02-28T10:27:48;2.90;;;2.20;;
21166;SDS011;10741;52.272;9.580;2023-02-28T10:30:18;2.50;;;1.70;;
21166;SDS011;10741;52.272;9.580;2023-02-28T10:32:47;3.87;;;2.43;;
21166;SDS011;10741;52.272;9.580;2023-02-28T10:35:19;5.03;;;2.10;;
21166;SDS011;10741;52.272;9.580;2023-02-28T10:37:51;2.77;;;2.30;;
21166;SDS011;10741;52.272;9.580;2023-02-28T10:42:55;3.67;;;2.60;;
21166;SDS011;10741;52.272;9.580;2023-02-28T10:45:29;3.47;;;2.13;;
21166;SDS011;10741;52.272;9.580;2023-02-28T11:01:24;3.13;;;2.57;;
21166;SDS011;10741;52.272;9.580;2023-02-28T11:04:01;3.47;;;2.53;;
21166;SDS011;10741;52.272;9.580;2023-02-28T11:06:29;2.60;;;1.63;;
21166;SDS011;10741;52.272;9.580;2023-02-28T11:09:00;4.07;;;2.10;;
21166;SDS011;10741;52.272;9.580;2023-02-28T11:11:29;2.83;;;2.03;;
21166;SDS011;10741;52.272;9.580;2023-02-28T11:14:06;2.30;;;2.00;;
21166;SDS011;10741;52.272;9.580;2023-02-28T11:16:42;3.40;;;2.30;;
21166;SDS011;10741;52.272;9.580;2023-02-28T11:19:16;4.63;;;2.30;;
21166;SDS011;10741;52.272;9.580;2023-02-28T11:21:51;2.90;;;2.20;;
21166;SDS011;10741;52.272;9.580;2023-02-28T11:24:36;2.63;;;1.90;;
21166;SDS011;10741;52.272;9.580;2023-02-28T11:27:13;2.27;;;1.60;;
21166;SDS011;10741;52.272;9.580;2023-02-28T11:29:55;2.57;;;1.47;;
21166;SDS011;10741;52.272;9.580;2023-02-28T11:32:23;3.30;;;1.60;;
21166;SDS011;10741;52.272;9.580;2023-02-28T11:38:04;3.30;;;2.07;;
21166;SDS011;10741;52.272;9.580;2023-02-28T11:41:16;4.43;;;2.10;;
21166;SDS011;10741;52.272;9.580;2023-02-28T11:49:22;3.30;;;1.57;;
21166;SDS011;10741;52.272;9.580;2023-02-28T11:51:57;3.03;;;1.90;;
21166;SDS011;10741;52.272;9.580;2023-02-28T11:57:25;5.07;;;2.27;;
21166;SDS011;10741;52.272;9.580;2023-02-28T12:05:46;3.77;;;1.80;;
21166;SDS011;10741;52.272;9.580;2023-02-28T12:16:45;3.17;;;2.10;;
21166;SDS011;10741;52.272;9.580;2023-02-28T12:19:48;3.80;;;1.83;;
21166;SDS011;10741;52.272;9.580;2023-02-28T12:22:39;4.20;;;2.20;;
21166;SDS011;10741;52.272;9.580;2023-02-28T12:28:03;4.07;;;2.07;;
21166;SDS011;10741;52.272;9.580;2023-02-28T12:30:31;3.53;;;1.90;;
21166;SDS011;10741;52.272;9.580;2023-02-28T12:35:59;4.20;;;2.10;;
21166;SDS011;10741;52.272;9.580;2023-02-28T12:38:41;2.67;;;2.00;;
21166;SDS011;10741;52.272;9.580;2023-02-28T12:41:13;2.77;;;1.90;;
21166;SDS011;10741;52.272;9.580;2023-02-28T12:43:54;3.93;;;1.90;;
21166;SDS011;10741;52.272;9.580;2023-02-28T12:46:29;3.57;;;2.23;;
21166;SDS011;10741;52.272;9.580;2023-02-28T12:49:13;3.83;;;1.93;;
21166;SDS011;10741;52.272;9.580;2023-02-28T12:51:44;2.37;;;1.70;;
21166;SDS011;10741;52.272;9.580;2023-02-28T12:54:16;2.80;;;1.70;;
21166;SDS011;10741;52.272;9.580;2023-02-28T13:10:58;4.00;;;1.90;;
21166;SDS011;10741;52.272;9.580;2023-02-28T13:13:25;2.60;;;2.00;;
21166;SDS011;10741;52.272;9.580;2023-02-28T13:15:58;3.27;;;2.00;;
21166;SDS011;10741;52.272;9.580;2023-02-28T13:18:38;2.63;;;2.03;;
21166;SDS011;10741;52.272;9.580;2023-02-28T13:21:09;3.27;;;2.03;;
21166;SDS011;10741;52.272;9.580;2023-02-28T13:23:57;3.30;;;2.00;;
21166;SDS011;10741;52.272;9.580;2023-02-28T13:34:27;2.93;;;2.10;;
21166;SDS011;10741;52.272;9.580;2023-02-28T13:37:20;2.30;;;1.80;;
21166;SDS011;10741;52.272;9.580;2023-02-28T13:39:56;2.90;;;2.07;;
21166;SDS011;10741;52.272;9.580;2023-02-28T13:47:50;3.27;;;2.70;;
21166;SDS011;10741;52.272;9.580;2023-02-28T14:08:54;3.90;;;2.60;;
21166;SDS011;10741;52.272;9.580;2023-02-28T14:11:33;2.57;;;2.37;;
21166;SDS011;10741;52.272;9.580;2023-02-28T14:14:02;2.33;;;2.13;;
21166;SDS011;10741;52.272;9.580;2023-02-28T14:19:17;2.40;;;2.20;;
21166;SDS011;10741;52.272;9.580;2023-02-28T14:32:29;3.23;;;2.23;;
21166;SDS011;10741;52.272;9.580;2023-02-28T14:37:47;4.20;;;2.20;;
21166;SDS011;10741;52.272;9.580;2023-02-28T14:40:17;3.77;;;2.47;;
21166;SDS011;10741;52.272;9.580;2023-02-28T14:43:00;2.83;;;2.27;;
21166;SDS011;10741;52.272;9.580;2023-02-28T14:45:31;2.17;;;1.87;;
21166;SDS011;10741;52.272;9.580;2023-02-28T14:48:00;3.43;;;2.40;;
21166;SDS011;10741;52.272;9.580;2023-02-28T14:50:29;2.37;;;2.00;;
21166;SDS011;10741;52.272;9.580;2023-02-28T14:52:58;3.63;;;2.30;;
21166;SDS011;10741;52.272;9.580;2023-02-28T14:55:26;3.03;;;2.27;;
21166;SDS011;10741;52.272;9.580;2023-02-28T14:57:58;2.73;;;2.33;;
21166;SDS011;10741;52.272;9.580;2023-02-28T15:00:48;3.60;;;2.07;;
21166;SDS011;10741;52.272;9.580;2023-02-28T15:03:28;2.53;;;2.10;;
21166;SDS011;10741;52.272;9.580;2023-02-28T15:06:01;4.10;;;2.07;;
21166;SDS011;10741;52.272;9.580;2023-02-28T15:08:31;3.03;;;2.23;;
21166;SDS011;10741;52.272;9.580;2023-02-28T15:16:12;4.07;;;1.90;;
21166;SDS011;10741;52.272;9.580;2023-02-28T15:18:55;2.40;;;1.83;;
21166;SDS011;10741;52.272;9.580;2023-02-28T15:21:41;4.33;;;1.67;;
21166;SDS011;10741;52.272;9.580;2023-02-28T15:24:13;5.60;;;1.70;;
21166;SDS011;10741;52.272;9.580;2023-02-28T15:26:51;2.70;;;1.90;;
21166;SDS011;10741;52.272;9.580;2023-02-28T15:29:24;2.33;;;1.90;;
21166;SDS011;10741;52.272;9.580;2023-02-28T15:32:02;2.73;;;1.90;;
21166;SDS011;10741;52.272;9.580;2023-02-28T15:34:37;2.73;;;2.23;;
21166;SDS011;10741;52.272;9.580;2023-02-28T15:39:55;5.83;;;2.50;;
21166;SDS011;10741;52.272;9.580;2023-02-28T15:42:23;3.67;;;2.30;;
21166;SDS011;10741;52.272;9.580;2023-02-28T15:44:54;3.07;;;2.33;;
21166;SDS011;10741;52.272;9.580;2023-02-28T15:47:21;4.47;;;3.47;;
21166;SDS011;10741;52.272;9.580;2023-02-28T15:50:01;4.13;;;2.60;;
21166;SDS011;10741;52.272;9.580;2023-02-28T15:52:39;3.73;;;2.37;;
21166;SDS011;10741;52.272;9.580;2023-02-28T15:55:19;4.40;;;2.60;;
21166;SDS011;10741;52.272;9.580;2023-02-28T15:57:52;3.00;;;2.30;;
21166;SDS011;10741;52.272;9.580;2023-02-28T16:00:24;3.97;;;2.20;;
21166;SDS011;10741;52.272;9.580;2023-02-28T16:02:51;3.07;;;2.30;;
21166;SDS011;10741;52.272;9.580;2023-02-28T16:05:19;3.63;;;2.30;;
21166;SDS011;10741;52.272;9.580;2023-02-28T16:07:46;5.17;;;2.43;;
21166;SDS011;10741;52.272;9.580;2023-02-28T16:10:13;3.13;;;2.37;;
21166;SDS011;10741;52.272;9.580;2023-02-28T16:12:39;4.07;;;2.67;;
21166;SDS011;10741;52.272;9.580;2023-02-28T16:15:16;3.70;;;2.50;;
21166;SDS011;10741;52.272;9.580;2023-02-28T16:17:44;3.23;;;2.37;;
21166;SDS011;10741;52.272;9.580;2023-02-28T16:20:14;4.47;;;2.70;;
21166;SDS011;10741;52.272;9.580;2023-02-28T16:22:42;2.90;;;2.60;;
21166;SDS011;10741;52.272;9.580;2023-02-28T16:25:11;3.50;;;2.30;;
21166;SDS011;10741;52.272;9.580;2023-02-28T16:27:41;5.10;;;3.57;;
21166;SDS011;10741;52.272;9.580;2023-02-28T16:30:19;5.17;;;2.57;;
21166;SDS011;10741;52.272;9.580;2023-02-28T16:32:47;4.73;;;2.50;;
21166;SDS011;10741;52.272;9.580;2023-02-28T16:35:13;4.00;;;2.60;;
21166;SDS011;10741;52.272;9.580;2023-02-28T16:37:40;3.07;;;2.17;;
21166;SDS011;10741;52.272;9.580;2023-02-28T16:40:06;3.70;;;2.90;;
21166;SDS011;10741;52.272;9.580;2023-02-28T16:42:48;3.63;;;2.37;;
21166;SDS011;10741;52.272;9.580;2023-02-28T16:45:18;3.47;;;2.70;;
21166;SDS011;10741;52.272;9.580;2023-02-28T16:47:49;3.43;;;2.40;;
21166;SDS011;10741;52.272;9.580;2023-02-28T16:50:19;3.83;;;2.47;;
21166;SDS011;10741;52.272;9.580;2023-02-28T16:52:45;5.37;;;2.70;;
21166;SDS011;10741;52.272;9.580;2023-02-28T16:55:11;4.00;;;2.77;;
21166;SDS011;10741;52.272;9.580;2023-02-28T16:57:37;6.70;;;2.50;;
21166;SDS011;10741;52.272;9.580;2023-02-28T17:00:05;3.67;;;2.70;;
21166;SDS011;10741;52.272;9.580;2023-02-28T17:02:33;5.37;;;2.40;;
21166;SDS011;10741;52.272;9.580;2023-02-28T17:04:59;2.93;;;2.60;;
21166;SDS011;10741;52.272;9.580;2023-02-28T17:07:25;3.17;;;2.40;;
21166;SDS011;10741;52.272;9.580;2023-02-28T17:09:51;4.60;;;2.50;;
21166;SDS011;10741;52.272;9.580;2023-02-28T17:12:17;4.13;;;2.80;;
21166;SDS011;10741;52.272;9.580;2023-02-28T17:14:43;6.20;;;2.37;;
21166;SDS011;10741;52.272;9.580;2023-02-28T17:17:09;3.23;;;2.50;;
21166;SDS011;10741;52.272;9.580;2023-02-28T17:19:42;3.50;;;2.47;;
21166;SDS011;10741;52.272;9.580;2023-02-28T17:22:09;3.80;;;2.73;;
21166;SDS011;10741;52.272;9.580;2023-02-28T17:24:35;3.73;;;2.83;;
21166;SDS011;10741;52.272;9.580;2023-02-28T17:27:00;3.30;;;2.67;;
21166;SDS011;10741;52.272;9.580;2023-02-28T17:29:27;3.93;;;3.03;;
21166;SDS011;10741;52.272;9.580;2023-02-28T17:31:53;4.70;;;3.37;;
21166;SDS011;10741;52.272;9.580;2023-02-28T17:34:18;4.37;;;3.93;;
21166;SDS011;10741;52.272;9.580;2023-02-28T17:36:45;5.97;;;4.33;;
21166;SDS011;10741;52.272;9.580;2023-02-28T17:39:13;7.17;;;4.17;;
21166;SDS011;10741;52.272;9.580;2023-02-28T17:41:40;6.43;;;5.00;;
21166;SDS011;10741;52.272;9.580;2023-02-28T17:44:07;6.13;;;4.93;;
21166;SDS011;10741;52.272;9.580;2023-02-28T17:46:33;7.33;;;4.90;;
21166;SDS011;10741;52.272;9.580;2023-02-28T17:49:00;6.33;;;4.83;;
21166;SDS011;10741;52.272;9.580;2023-02-28T17:51:26;8.57;;;5.67;;
21166;SDS011;10741;52.272;9.580;2023-02-28T17:53:52;10.33;;;7.13;;
21166;SDS011;10741;52.272;9.580;2023-02-28T17:56:19;11.03;;;7.60;;
21166;SDS011;10741;52.272;9.580;2023-02-28T17:58:48;9.70;;;7.23;;
21166;SDS011;10741;52.272;9.580;2023-02-28T18:01:14;11.27;;;7.53;;